地図

経路データ

SID SEASON NUMBER BASIN SUBBASIN NAME ISO_TIME NATURE LAT LON WMO_WIND WMO_PRES WMO_AGENCY TRACK_TYPE DIST2LAND LANDFALL IFLAG USA_AGENCY USA_ATCF_ID USA_LAT USA_LON USA_RECORD USA_STATUS USA_WIND USA_PRES USA_SSHS USA_R34_NE USA_R34_SE USA_R34_SW USA_R34_NW USA_R50_NE USA_R50_SE USA_R50_SW USA_R50_NW USA_R64_NE USA_R64_SE USA_R64_SW USA_R64_NW USA_POCI USA_ROCI USA_RMW USA_EYE TOKYO_LAT TOKYO_LON TOKYO_GRADE TOKYO_WIND TOKYO_PRES TOKYO_R50_DIR TOKYO_R50_LONG TOKYO_R50_SHORT TOKYO_R30_DIR TOKYO_R30_LONG TOKYO_R30_SHORT TOKYO_LAND CMA_LAT CMA_LON CMA_CAT CMA_WIND CMA_PRES HKO_LAT HKO_LON HKO_CAT HKO_WIND HKO_PRES NEWDELHI_LAT NEWDELHI_LON NEWDELHI_GRADE NEWDELHI_WIND NEWDELHI_PRES NEWDELHI_CI NEWDELHI_DP NEWDELHI_POCI REUNION_LAT REUNION_LON REUNION_TYPE REUNION_WIND REUNION_PRES REUNION_TNUM REUNION_CI REUNION_RMW REUNION_R34_NE REUNION_R34_SE REUNION_R34_SW REUNION_R34_NW REUNION_R50_NE REUNION_R50_SE REUNION_R50_SW REUNION_R50_NW REUNION_R64_NE REUNION_R64_SE REUNION_R64_SW REUNION_R64_NW BOM_LAT BOM_LON BOM_TYPE BOM_WIND BOM_PRES BOM_TNUM BOM_CI BOM_RMW BOM_R34_NE BOM_R34_SE BOM_R34_SW BOM_R34_NW BOM_R50_NE BOM_R50_SE BOM_R50_SW BOM_R50_NW BOM_R64_NE BOM_R64_SE BOM_R64_SW BOM_R64_NW BOM_ROCI BOM_POCI BOM_EYE BOM_POS_METHOD BOM_PRES_METHOD NADI_LAT NADI_LON NADI_CAT NADI_WIND NADI_PRES WELLINGTON_LAT WELLINGTON_LON WELLINGTON_WIND WELLINGTON_PRES DS824_LAT DS824_LON DS824_STAGE DS824_WIND DS824_PRES TD9636_LAT TD9636_LON TD9636_STAGE TD9636_WIND TD9636_PRES TD9635_LAT TD9635_LON TD9635_WIND TD9635_PRES TD9635_ROCI NEUMANN_LAT NEUMANN_LON NEUMANN_CLASS NEUMANN_WIND NEUMANN_PRES MLC_LAT MLC_LON MLC_CLASS MLC_WIND MLC_PRES USA_GUST BOM_GUST BOM_GUST_PER REUNION_GUST REUNION_GUST_PER USA_SEAHGT USA_SEARAD_NE USA_SEARAD_SE USA_SEARAD_SW USA_SEARAD_NW STORM_SPEED STORM_DIR
1858060S12078 1858 3 SI MM NOT_NAMED 1858-02-28 18:00:00 NR -12.3000 78.2000 main 2056 2056 __________O___ -1 -12.3000 78.2000 7 7 240
1858060S12078 1858 3 SI MM NOT_NAMED 1858-02-28 21:00:00 NR -12.4658 77.9097 main 2083 2083 __________P___ -1 -12.4658 77.9097 7 7 240
1858060S12078 1858 3 SI MM NOT_NAMED 1858-03-01 00:00:00 NR -12.6352 77.6154 main 2099 2099 __________P___ -1 -12.6352 77.6154 7 7 239
1858060S12078 1858 3 SI MM NOT_NAMED 1858-03-01 03:00:00 NR -12.8120 77.3134 main 2126 2126 __________P___ -1 -12.8120 77.3134 7 7 239
1858060S12078 1858 3 SI MM NOT_NAMED 1858-03-01 06:00:00 NR -13.0000 77.0000 main 2154 2154 __________O___ -1 -13.0000 77.0000 7 7 238
1858060S12078 1858 3 SI MM NOT_NAMED 1858-03-01 09:00:00 NR -13.2039 76.6721 main 2161 2113 __________P___ -1 -13.2039 76.6721 7 8 236
1858060S12078 1858 3 SI MM NOT_NAMED 1858-03-01 12:00:00 NR -13.4323 76.3293 main 2113 2069 __________P___ -1 -13.4323 76.3293 7 8 234
1858060S12078 1858 3 SI MM NOT_NAMED 1858-03-01 15:00:00 NR -13.6945 75.9719 main 2069 2017 __________P___ -1 -13.6945 75.9719 7 9 231
1858060S12078 1858 3 SI MM NOT_NAMED 1858-03-01 18:00:00 NR -14.0000 75.6000 main 2017 1964 __________O___ -1 -14.0000 75.6000 7 10 229
1858060S12078 1858 3 SI MM NOT_NAMED 1858-03-01 21:00:00 NR -14.3652 75.1824 main 1959 1907 __________P___ -1 -14.3652 75.1824 7 11 227
1858060S12078 1858 3 SI MM NOT_NAMED 1858-03-02 00:00:00 NR -14.7704 74.7558 main 1903 1847 __________P___ -1 -14.7704 74.7558 7 12 224
1858060S12078 1858 3 SI MM NOT_NAMED 1858-03-02 03:00:00 NR -15.1903 74.3512 main 1847 1791 __________P___ -1 -15.1903 74.3512 7 11 221
1858060S12078 1858 3 SI MM NOT_NAMED 1858-03-02 06:00:00 NR -15.6000 74.0000 main 1791 1750 __________O___ -1 -15.6000 74.0000 7 10 218
1858060S12078 1858 3 SI MM NOT_NAMED 1858-03-02 09:00:00 NR -15.9437 73.7336 main 1750 1716 __________P___ -1 -15.9437 73.7336 7 8 214
1858060S12078 1858 3 SI MM NOT_NAMED 1858-03-02 12:00:00 NR -16.2770 73.5240 main 1716 1696 __________P___ -1 -16.2770 73.5240 7 8 208
1858060S12078 1858 3 SI MM NOT_NAMED 1858-03-02 15:00:00 NR -16.6219 73.3524 main 1696 1663 __________P___ -1 -16.6219 73.3524 7 8 203
1858060S12078 1858 3 SI MM NOT_NAMED 1858-03-02 18:00:00 NR -17.0000 73.2000 main 1663 1631 __________O___ -1 -17.0000 73.2000 7 9 201
1858060S12078 1858 3 SI MM NOT_NAMED 1858-03-02 21:00:00 NR -17.4634 73.0116 main 1628 1598 __________P___ -1 -17.4634 73.0116 7 10 200
1858060S12078 1858 3 SI MM NOT_NAMED 1858-03-03 00:00:00 NR -17.9575 72.8405 main 1595 1577 __________P___ -1 -17.9575 72.8405 7 10 197
1858060S12078 1858 3 SI MM NOT_NAMED 1858-03-03 03:00:00 NR -18.4478 72.6991 main 1577 1557 __________P___ -1 -18.4478 72.6991 7 10 193
1858060S12078 1858 3 SI MM NOT_NAMED 1858-03-03 06:00:00 NR -18.9000 72.6000 main 1557 1541 __________O___ -1 -18.9000 72.6000 7 8 190
1858060S12078 1858 3 SI MM NOT_NAMED 1858-03-03 09:00:00 NR -19.2721 72.5483 main 1541 1537 __________P___ -1 -19.2721 72.5483 7 7 184
1858060S12078 1858 3 SI MM NOT_NAMED 1858-03-03 12:00:00 NR -19.6024 72.5395 main 1537 1535 __________P___ -1 -19.6024 72.5395 7 6 0
1858060S12078 1858 3 SI MM NOT_NAMED 1858-03-03 15:00:00 NR -19.9065 72.5610 main 1545 1543 __________P___ -1 -19.9065 72.5610 7 6 175
1858060S12078 1858 3 SI MM NOT_NAMED 1858-03-03 18:00:00 NR -20.2000 72.6000 main 1543 1541 __________O___ -1 -20.2000 72.6000 7 6 174
1858060S12078 1858 3 SI MM NOT_NAMED 1858-03-03 21:00:00 NR -20.5153 72.6235 main 1541 1541 __________P___ -1 -20.5153 72.6235 7 6 176
1858060S12078 1858 3 SI MM NOT_NAMED 1858-03-04 00:00:00 NR -20.8224 72.6626 main 1551 1551 __________P___ -1 -20.8224 72.6626 7 6 172
1858060S12078 1858 3 SI MM NOT_NAMED 1858-03-04 03:00:00 NR -21.1184 72.7204 main 1551 1551 __________P___ -1 -21.1184 72.7204 7 6 168
1858060S12078 1858 3 SI MM NOT_NAMED 1858-03-04 06:00:00 NR -21.4000 72.8000 main 1562 1562 __________O___ -1 -21.4000 72.8000 7 6 164
1858060S12078 1858 3 SI MM NOT_NAMED 1858-03-04 09:00:00 NR -21.6603 72.8914 main 1574 1574 __________P___ -1 -21.6603 72.8914 7 5 160
1858060S12078 1858 3 SI MM NOT_NAMED 1858-03-04 12:00:00 NR -21.9074 73.0053 main 1585 1585 __________P___ -1 -21.9074 73.0053 7 5 155
1858060S12078 1858 3 SI MM NOT_NAMED 1858-03-04 15:00:00 NR -22.1509 73.1415 main 1598 1598 __________P___ -1 -22.1509 73.1415 7 6 151
1858060S12078 1858 3 SI MM NOT_NAMED 1858-03-04 18:00:00 NR -22.4000 73.3000 main 1621 1621 __________O___ -1 -22.4000 73.3000 7 6 148
1858060S12078 1858 3 SI MM NOT_NAMED 1858-03-04 21:00:00 NR -22.6620 73.4798 main 1645 1645 __________P___ -1 -22.6620 73.4798 7 6 147
1858060S12078 1858 3 SI MM NOT_NAMED 1858-03-05 00:00:00 NR -22.9353 73.6767 main 1668 1668 __________P___ -1 -22.9353 73.6767 7 7 146
1858060S12078 1858 3 SI MM NOT_NAMED 1858-03-05 03:00:00 NR -23.2159 73.8852 main 1692 1692 __________P___ -1 -23.2159 73.8852 7 7 145
1858060S12078 1858 3 SI MM NOT_NAMED 1858-03-05 06:00:00 NR -23.5000 74.1000 main 1717 __________O___ -1 -23.5000 74.1000 7 7 145

IBTrACS Databaseについて

本データベースは、米国NOAAが公開する1842年以降の世界の熱帯低気圧のベストトラックデータアーカイブInternational Best Track Archive for Climate Stewardship (IBTrACS)を、ウェブで閲覧しやすい形式に変換したものです。

最終更新日:2021-12-03